createdAt,value
2023-05-09T00:02:17.184Z,21.77
2023-05-09T00:04:46.913Z,26.52
2023-05-09T00:07:15.314Z,23.52
2023-05-09T00:09:43.459Z,23.98
2023-05-09T00:12:12.366Z,23.65
2023-05-09T00:14:41.251Z,22.33
2023-05-09T00:17:09.972Z,21.00
2023-05-09T00:19:38.194Z,22.90
2023-05-09T00:22:09.512Z,23.88
2023-05-09T00:24:38.052Z,26.42
2023-05-09T00:27:06.297Z,22.58
2023-05-09T00:29:34.772Z,21.95
2023-05-09T00:32:03.258Z,19.67
2023-05-09T00:34:31.492Z,22.17
2023-05-09T00:36:59.828Z,22.30
2023-05-09T00:39:29.580Z,24.50
2023-05-09T00:41:58.177Z,20.35
2023-05-09T00:44:26.520Z,23.60
2023-05-09T00:46:55.086Z,26.25
2023-05-09T00:49:23.366Z,24.80
2023-05-09T00:51:51.795Z,23.30
2023-05-09T00:54:20.398Z,23.13
2023-05-09T00:56:50.059Z,26.27
2023-05-09T00:59:19.030Z,25.08
2023-05-09T01:01:47.674Z,24.88
2023-05-09T01:04:16.594Z,22.25
2023-05-09T01:06:53.910Z,21.00
2023-05-09T01:09:31.015Z,21.40
2023-05-09T01:12:15.388Z,22.15
2023-05-09T01:14:51.709Z,22.38
2023-05-09T01:17:31.693Z,26.00
2023-05-09T01:20:11.192Z,21.80
2023-05-09T01:22:49.827Z,21.30
2023-05-09T01:25:46.927Z,22.30
2023-05-09T01:28:26.672Z,22.77
2023-05-09T01:30:57.779Z,24.60
2023-05-09T01:33:29.917Z,23.08
2023-05-09T01:36:05.674Z,23.02
2023-05-09T01:38:35.722Z,22.83
2023-05-09T01:41:05.593Z,23.95
2023-05-09T01:43:36.098Z,27.45
2023-05-09T01:46:07.348Z,25.15
2023-05-09T01:48:37.371Z,23.02
2023-05-09T01:51:06.716Z,24.58
2023-05-09T01:53:37.292Z,23.23
2023-05-09T01:56:07.199Z,22.73
2023-05-09T01:58:35.380Z,26.88
2023-05-09T02:01:06.719Z,22.77
2023-05-09T02:03:38.683Z,22.10
2023-05-09T02:06:08.883Z,22.95
2023-05-09T02:08:37.264Z,23.58
2023-05-09T02:11:05.607Z,29.35
2023-05-09T02:13:34.657Z,23.13
2023-05-09T02:16:03.370Z,23.60
2023-05-09T02:18:34.234Z,25.58
2023-05-09T02:21:03.252Z,24.17
2023-05-09T02:23:32.189Z,22.50
2023-05-09T02:26:00.362Z,23.20
2023-05-09T02:28:29.756Z,26.25
2023-05-09T02:30:59.899Z,24.00
2023-05-09T02:33:29.256Z,27.10
2023-05-09T02:35:59.337Z,22.85
2023-05-09T02:38:28.247Z,23.33
2023-05-09T02:40:56.851Z,25.33
2023-05-09T02:43:25.239Z,27.38
2023-05-09T02:45:53.377Z,24.17
2023-05-09T02:48:21.755Z,23.20
2023-05-09T02:50:50.153Z,25.05
2023-05-09T02:53:19.673Z,26.33
2023-05-09T02:55:47.994Z,24.70
2023-05-09T02:58:16.114Z,22.67
2023-05-09T03:00:44.698Z,24.20
2023-05-09T03:03:12.888Z,25.63
2023-05-09T03:05:41.374Z,22.95
2023-05-09T03:08:09.855Z,21.05
2023-05-09T03:10:39.554Z,21.42
2023-05-09T03:13:08.086Z,23.70
2023-05-09T03:15:36.852Z,22.90
2023-05-09T03:18:05.601Z,19.63
2023-05-09T03:20:33.850Z,21.00
2023-05-09T03:23:02.096Z,21.70
2023-05-09T03:25:30.562Z,21.05
2023-05-09T03:28:00.290Z,22.92
2023-05-09T03:30:28.694Z,20.20
2023-05-09T03:32:57.274Z,21.45
2023-05-09T03:35:25.784Z,20.35
2023-05-09T03:37:54.017Z,22.17
2023-05-09T03:40:22.153Z,22.77
2023-05-09T03:42:50.567Z,21.88
2023-05-09T03:45:20.445Z,22.42
2023-05-09T03:47:48.581Z,20.83
2023-05-09T03:50:17.193Z,20.80
2023-05-09T03:52:45.435Z,22.40
2023-05-09T03:55:13.970Z,20.00
2023-05-09T03:57:42.642Z,21.52
2023-05-09T04:00:12.595Z,19.90
2023-05-09T04:02:42.618Z,23.67
2023-05-09T04:05:11.143Z,23.77
2023-05-09T04:07:39.737Z,23.90
2023-05-09T04:10:10.634Z,22.65
2023-05-09T04:12:39.312Z,21.52
2023-05-09T04:15:09.237Z,23.88
2023-05-09T04:17:37.845Z,24.23
2023-05-09T04:20:09.417Z,25.45
2023-05-09T04:22:37.562Z,24.00
2023-05-09T04:25:07.267Z,24.45
2023-05-09T04:27:35.672Z,21.63
2023-05-09T04:30:05.560Z,26.52
2023-05-09T04:32:33.942Z,25.20
2023-05-09T04:35:02.215Z,24.55
2023-05-09T04:37:32.764Z,25.23
2023-05-09T04:40:01.397Z,22.40
2023-05-09T04:42:29.632Z,26.63
2023-05-09T04:44:57.790Z,26.42
2023-05-09T04:47:26.195Z,31.17
2023-05-09T04:49:54.631Z,26.13
2023-05-09T04:52:22.823Z,25.70
2023-05-09T04:54:52.532Z,26.77
2023-05-09T04:57:20.892Z,26.70
2023-05-09T04:59:49.719Z,27.30
2023-05-09T05:02:18.107Z,25.92
2023-05-09T05:04:46.513Z,29.13
2023-05-09T05:07:14.766Z,24.90
2023-05-09T05:09:43.035Z,28.13
2023-05-09T05:12:12.858Z,27.05
2023-05-09T05:14:41.001Z,27.38
2023-05-09T05:17:09.624Z,25.95
2023-05-09T05:19:37.967Z,32.35
2023-05-09T05:22:06.282Z,25.05
2023-05-09T05:24:34.579Z,25.10
2023-05-09T05:27:03.316Z,27.17
2023-05-09T05:29:32.866Z,25.15
2023-05-09T05:32:01.142Z,25.65
2023-05-09T05:34:29.479Z,22.92
2023-05-09T05:36:57.713Z,25.42
2023-05-09T05:39:26.114Z,28.30
2023-05-09T05:41:54.494Z,26.33
2023-05-09T05:44:23.005Z,25.02
2023-05-09T05:46:52.860Z,25.70
2023-05-09T05:49:21.270Z,23.23
2023-05-09T05:51:49.477Z,23.92
2023-05-09T05:54:18.017Z,23.65
2023-05-09T05:56:46.265Z,23.92
2023-05-09T05:59:14.384Z,22.00
2023-05-09T06:01:43.345Z,24.42
2023-05-09T06:04:13.112Z,23.63
2023-05-09T06:06:41.487Z,24.52
2023-05-09T06:09:09.983Z,22.65
2023-05-09T06:11:39.500Z,22.75
2023-05-09T06:14:07.687Z,20.20
2023-05-09T06:16:35.899Z,21.65
2023-05-09T06:19:04.574Z,21.70
2023-05-09T06:21:34.483Z,21.25
2023-05-09T06:24:11.933Z,23.75
2023-05-09T06:26:45.762Z,19.75
2023-05-09T06:29:15.538Z,22.77
2023-05-09T06:31:43.726Z,19.20
2023-05-09T06:34:12.496Z,21.92
2023-05-09T06:36:42.203Z,19.77
2023-05-09T06:39:10.483Z,20.13
2023-05-09T06:41:39.059Z,21.08
2023-05-09T06:44:08.264Z,23.75
2023-05-09T06:46:36.486Z,19.85
2023-05-09T06:49:06.340Z,21.42
2023-05-09T06:51:34.786Z,20.40
2023-05-09T06:54:04.290Z,20.27
2023-05-09T06:56:32.811Z,20.85
2023-05-09T06:59:01.297Z,21.42
2023-05-09T07:01:29.715Z,18.75
2023-05-09T07:03:59.472Z,19.60
2023-05-09T07:06:27.593Z,20.30
2023-05-09T07:08:56.144Z,20.10
2023-05-09T07:11:26.055Z,18.75
2023-05-09T07:13:54.235Z,19.83
2023-05-09T07:16:23.141Z,18.67
2023-05-09T07:18:51.926Z,18.77
2023-05-09T07:21:20.099Z,19.25
2023-05-09T07:23:48.308Z,20.40
2023-05-09T07:26:16.937Z,17.10
2023-05-09T07:28:46.505Z,16.08
2023-05-09T07:31:14.695Z,17.60
2023-05-09T07:33:43.607Z,15.10
2023-05-09T07:36:13.254Z,18.52
2023-05-09T07:38:41.453Z,16.90
2023-05-09T07:41:09.897Z,16.20
2023-05-09T07:43:38.262Z,16.30
2023-05-09T07:46:07.978Z,18.63
2023-05-09T07:48:36.579Z,15.88
2023-05-09T07:51:05.270Z,14.25
2023-05-09T07:53:33.691Z,12.95
2023-05-09T07:56:06.859Z,13.30
2023-05-09T07:58:35.288Z,10.85
2023-05-09T08:01:03.557Z,11.07
2023-05-09T08:03:33.447Z,12.80
2023-05-09T08:06:01.738Z,12.10
2023-05-09T08:08:29.944Z,11.27
2023-05-09T08:10:58.253Z,13.23
2023-05-09T08:13:26.695Z,10.38
2023-05-09T08:15:54.881Z,10.15
2023-05-09T08:18:23.227Z,8.15
2023-05-09T08:20:52.913Z,11.35
2023-05-09T08:23:21.410Z,9.23
2023-05-09T08:25:53.794Z,10.63
2023-05-09T08:28:24.392Z,11.73
2023-05-09T08:30:52.833Z,8.18
2023-05-09T08:33:21.242Z,8.57
2023-05-09T08:35:53.783Z,6.65
2023-05-09T08:38:22.494Z,9.52
2023-05-09T08:40:50.958Z,9.15
2023-05-09T08:43:22.441Z,8.95
2023-05-09T08:45:55.819Z,10.10
2023-05-09T08:48:24.345Z,8.57
2023-05-09T08:50:54.948Z,10.10
2023-05-09T08:53:23.893Z,8.98
2023-05-09T08:55:52.709Z,11.18
2023-05-09T08:58:22.801Z,10.55
2023-05-09T09:00:51.811Z,9.90
2023-05-09T09:03:20.013Z,13.95
2023-05-09T09:05:49.376Z,10.27
2023-05-09T09:08:20.179Z,11.55
2023-05-09T09:10:48.647Z,10.45
2023-05-09T09:13:18.681Z,12.32
2023-05-09T09:15:49.534Z,11.75
2023-05-09T09:18:23.187Z,10.32
2023-05-09T09:23:25.537Z,12.18
2023-05-09T09:26:00.387Z,13.27
2023-05-09T09:28:29.679Z,9.88
2023-05-09T09:30:57.925Z,9.85
2023-05-09T09:33:27.516Z,8.52
2023-05-09T09:35:57.736Z,6.95
2023-05-09T09:38:27.579Z,7.43
2023-05-09T09:40:56.830Z,6.65
2023-05-09T09:43:31.693Z,9.15
2023-05-09T09:46:03.339Z,9.93
2023-05-09T09:48:33.911Z,7.68
2023-05-09T09:51:09.236Z,8.50
2023-05-09T09:53:42.723Z,7.43
2023-05-09T09:56:12.016Z,8.70
2023-05-09T09:58:40.483Z,7.45
2023-05-09T10:01:10.303Z,9.35
2023-05-09T10:03:39.885Z,11.02
2023-05-09T10:06:12.074Z,7.97
2023-05-09T10:08:42.428Z,8.68
2023-05-09T10:11:11.549Z,7.65
2023-05-09T10:13:40.012Z,8.23
2023-05-09T10:16:10.848Z,6.93
2023-05-09T10:18:40.800Z,8.10
2023-05-09T10:21:13.186Z,9.05
2023-05-09T10:23:46.928Z,7.82
2023-05-09T10:26:20.369Z,6.68
2023-05-09T10:28:50.281Z,6.90
2023-05-09T10:31:24.465Z,9.48
2023-05-09T10:33:52.817Z,7.63
2023-05-09T10:36:22.264Z,7.60
2023-05-09T10:38:53.034Z,7.03
2023-05-09T10:41:22.212Z,7.30
2023-05-09T10:43:50.569Z,6.43
2023-05-09T10:46:19.590Z,7.15
2023-05-09T10:48:49.959Z,5.90
2023-05-09T10:51:18.887Z,5.30
2023-05-09T10:53:49.163Z,5.95
2023-05-09T10:56:31.914Z,8.25
2023-05-09T10:59:00.586Z,7.72
2023-05-09T11:01:35.414Z,5.53
2023-05-09T11:04:10.315Z,5.78
2023-05-09T11:06:43.908Z,5.90
2023-05-09T11:11:56.266Z,4.53
2023-05-09T11:14:31.957Z,5.63
2023-05-09T11:17:00.755Z,6.60
2023-05-09T11:20:00.270Z,5.88
2023-05-09T11:22:32.226Z,6.65
2023-05-09T11:25:09.079Z,6.15
2023-05-09T11:27:42.591Z,6.95
2023-05-09T11:30:14.641Z,4.30
2023-05-09T11:32:46.314Z,4.63
2023-05-09T11:35:17.104Z,4.47
2023-05-09T11:37:50.603Z,5.82
2023-05-09T11:40:20.506Z,4.38
2023-05-09T11:42:55.407Z,5.30
2023-05-09T11:45:27.684Z,4.05
2023-05-09T11:47:57.116Z,5.60
2023-05-09T11:50:25.780Z,4.03
2023-05-09T11:52:55.400Z,3.75
2023-05-09T11:55:25.695Z,3.15
2023-05-09T11:57:55.982Z,5.38
2023-05-09T12:00:26.246Z,5.82
2023-05-09T12:02:54.954Z,3.53
2023-05-09T12:05:24.322Z,3.55
2023-05-09T12:07:52.997Z,3.13
2023-05-09T12:10:23.898Z,4.45
2023-05-09T12:12:55.827Z,3.15
2023-05-09T12:15:26.304Z,3.75
2023-05-09T12:18:05.675Z,4.43
2023-05-09T12:20:44.737Z,3.88
2023-05-09T12:23:14.904Z,4.88
2023-05-09T12:25:49.306Z,3.80
2023-05-09T12:28:18.983Z,4.38
2023-05-09T12:30:48.652Z,4.10
2023-05-09T12:33:19.120Z,3.25
2023-05-09T12:35:48.687Z,4.13
2023-05-09T12:38:23.482Z,3.53
2023-05-09T12:41:03.636Z,3.30
2023-05-09T12:43:33.441Z,4.00
2023-05-09T12:46:05.504Z,4.55
2023-05-09T12:48:38.784Z,3.50
2023-05-09T12:51:07.589Z,3.88
2023-05-09T12:53:39.950Z,2.70
2023-05-09T12:56:14.468Z,3.80
2023-05-09T12:58:49.872Z,4.32
2023-05-09T13:01:20.379Z,4.05
2023-05-09T13:03:53.192Z,4.28
2023-05-09T13:06:21.917Z,3.50
2023-05-09T13:09:00.504Z,4.45
2023-05-09T13:11:29.236Z,4.03
2023-05-09T13:13:57.827Z,2.97
2023-05-09T13:16:27.724Z,4.30
2023-05-09T13:18:56.157Z,3.78
2023-05-09T13:21:24.570Z,3.30
2023-05-09T13:23:52.680Z,3.50
2023-05-09T13:26:21.463Z,1.90
2023-05-09T13:28:49.764Z,3.13
2023-05-09T13:31:18.769Z,2.67
2023-05-09T13:33:50.010Z,2.10
2023-05-09T13:36:20.682Z,2.00
2023-05-09T13:38:49.020Z,2.22
2023-05-09T13:41:20.963Z,3.05
2023-05-09T13:43:49.399Z,2.55
2023-05-09T13:46:17.747Z,2.05
2023-05-09T13:48:47.907Z,2.00
2023-05-09T13:51:16.362Z,3.55
2023-05-09T13:53:44.531Z,1.70
2023-05-09T13:56:12.883Z,5.30
2023-05-09T13:58:41.713Z,2.47
2023-05-09T14:01:09.851Z,2.05
2023-05-09T14:03:38.473Z,2.45
2023-05-09T14:06:09.359Z,2.60
2023-05-09T14:08:37.691Z,4.95
2023-05-09T14:11:05.975Z,2.00
2023-05-09T14:13:34.242Z,2.47
2023-05-09T14:16:02.420Z,2.58
2023-05-09T14:18:31.071Z,2.38
2023-05-09T14:20:59.446Z,3.17
2023-05-09T14:23:29.067Z,2.58
2023-05-09T14:25:57.629Z,3.22
2023-05-09T14:28:25.949Z,2.92
2023-05-09T14:30:54.528Z,3.20
2023-05-09T14:33:22.829Z,3.28
2023-05-09T14:35:51.195Z,3.15
2023-05-09T14:38:19.363Z,3.10
2023-05-09T14:40:49.496Z,2.58
2023-05-09T14:43:17.943Z,3.90
2023-05-09T14:45:46.116Z,2.75
2023-05-09T14:48:16.234Z,3.35
2023-05-09T14:50:44.822Z,3.83
2023-05-09T14:53:13.616Z,3.70
2023-05-09T14:55:41.969Z,3.90
2023-05-09T14:58:13.469Z,3.58
2023-05-09T15:00:41.955Z,4.65
2023-05-09T15:03:11.032Z,3.88
2023-05-09T15:05:40.121Z,5.03
2023-05-09T15:08:08.651Z,4.20
2023-05-09T15:10:36.907Z,4.68
2023-05-09T15:13:05.909Z,4.30
2023-05-09T15:15:38.475Z,3.97
2023-05-09T15:18:10.036Z,4.18
2023-05-09T15:20:38.332Z,4.43
2023-05-09T15:23:08.051Z,4.80
2023-05-09T15:25:36.457Z,5.68
2023-05-09T15:28:04.659Z,5.70
2023-05-09T15:30:33.427Z,5.70
2023-05-09T15:33:03.348Z,6.40
2023-05-09T15:35:32.099Z,6.03
2023-05-09T15:38:01.210Z,6.70
2023-05-09T15:40:29.658Z,6.47
2023-05-09T15:42:58.594Z,6.00
2023-05-09T15:45:27.239Z,7.00
2023-05-09T15:47:55.521Z,8.00
2023-05-09T15:50:25.189Z,9.52
2023-05-09T15:52:53.701Z,9.57
2023-05-09T15:55:23.126Z,8.45
2023-05-09T15:57:52.714Z,8.70
2023-05-09T16:00:21.779Z,9.75
2023-05-09T16:02:50.163Z,9.38
2023-05-09T16:05:18.876Z,11.80
2023-05-09T16:07:50.273Z,11.18
2023-05-09T16:10:18.610Z,8.00
2023-05-09T16:12:46.938Z,10.10
2023-05-09T16:15:24.561Z,10.00
2023-05-09T16:17:57.465Z,9.15
2023-05-09T16:20:25.991Z,10.10
2023-05-09T16:22:55.784Z,12.23
2023-05-09T16:25:24.187Z,10.75
2023-05-09T16:27:53.669Z,10.07
2023-05-09T16:30:22.140Z,12.02
2023-05-09T16:32:50.336Z,10.77
2023-05-09T16:35:19.064Z,10.07
2023-05-09T16:37:47.452Z,10.75
2023-05-09T16:40:17.345Z,11.30
2023-05-09T16:42:45.862Z,11.63
2023-05-09T16:45:14.221Z,11.70
2023-05-09T16:47:42.441Z,11.20
2023-05-09T16:50:11.443Z,14.18
2023-05-09T16:52:39.763Z,12.85
2023-05-09T16:55:08.758Z,14.15
2023-05-09T16:57:38.519Z,14.43
2023-05-09T17:00:08.537Z,16.10
2023-05-09T17:02:37.563Z,16.67
2023-05-09T17:05:06.533Z,18.35
2023-05-09T17:07:34.853Z,16.60
2023-05-09T17:10:03.529Z,20.23
2023-05-09T17:12:31.783Z,18.38
2023-05-09T17:15:01.442Z,20.83
2023-05-09T17:17:30.046Z,19.48
2023-05-09T17:19:58.845Z,21.75
2023-05-09T17:22:27.163Z,20.92
2023-05-09T17:24:55.769Z,23.50
2023-05-09T17:27:24.160Z,17.42
2023-05-09T17:29:52.413Z,14.82
2023-05-09T17:32:22.124Z,13.25
2023-05-09T17:34:50.395Z,13.50
2023-05-09T17:37:18.794Z,13.20
2023-05-09T17:39:47.231Z,9.70
2023-05-09T17:42:15.491Z,10.80
2023-05-09T17:44:44.495Z,11.23
2023-05-09T17:47:14.301Z,9.80
2023-05-09T17:49:43.991Z,8.80
2023-05-09T17:52:12.288Z,9.50
2023-05-09T17:54:41.546Z,10.13
2023-05-09T17:57:09.697Z,9.20
2023-05-09T17:59:40.626Z,9.27
2023-05-09T18:02:09.079Z,9.48
2023-05-09T18:04:37.360Z,10.02
2023-05-09T18:07:07.048Z,9.07
2023-05-09T18:09:35.561Z,11.57
2023-05-09T18:12:03.715Z,10.07
2023-05-09T18:14:32.033Z,10.18
2023-05-09T18:17:00.636Z,9.60
2023-05-09T18:19:28.882Z,10.63
2023-05-09T18:21:57.180Z,8.75
2023-05-09T18:24:27.148Z,9.20
2023-05-09T18:26:55.415Z,8.70
2023-05-09T18:29:23.911Z,8.75
2023-05-09T18:31:52.273Z,8.27
2023-05-09T18:34:20.533Z,7.38
2023-05-09T18:36:49.782Z,9.02
2023-05-09T18:39:18.125Z,8.75
2023-05-09T18:41:47.851Z,7.68
2023-05-09T18:44:16.196Z,8.95
2023-05-09T18:46:44.447Z,9.23
2023-05-09T18:49:13.173Z,7.93
2023-05-09T18:51:41.773Z,8.65
2023-05-09T18:54:09.920Z,9.10
2023-05-09T18:56:39.455Z,8.98
2023-05-09T18:59:12.286Z,10.15
2023-05-09T19:01:42.496Z,9.50
2023-05-09T19:04:10.967Z,9.13
2023-05-09T19:06:39.532Z,8.35
2023-05-09T19:09:07.939Z,9.70
2023-05-09T19:11:36.228Z,9.30
2023-05-09T19:14:05.247Z,11.32
2023-05-09T19:16:35.021Z,8.75
2023-05-09T19:19:03.455Z,9.48
2023-05-09T19:21:31.770Z,10.05
2023-05-09T19:24:00.390Z,9.35
2023-05-09T19:26:28.691Z,9.35
2023-05-09T19:28:57.148Z,9.80
2023-05-09T19:31:25.765Z,10.35
2023-05-09T19:33:55.529Z,9.35
2023-05-09T19:36:23.857Z,9.93
2023-05-09T19:38:52.404Z,8.85
2023-05-09T19:41:21.596Z,9.98
2023-05-09T19:43:51.447Z,10.70
2023-05-09T19:46:20.173Z,8.25
2023-05-09T19:48:48.423Z,8.75
2023-05-09T19:51:18.486Z,10.25
2023-05-09T19:53:46.939Z,10.88
2023-05-09T19:56:15.246Z,9.60
2023-05-09T19:58:43.755Z,9.57
2023-05-09T20:01:12.112Z,11.75
2023-05-09T20:03:42.271Z,12.23
2023-05-09T20:06:11.264Z,11.05
2023-05-09T20:08:41.285Z,13.43
2023-05-09T20:11:10.029Z,13.77
2023-05-09T20:13:38.856Z,13.20
2023-05-09T20:16:07.722Z,12.82
2023-05-09T20:18:36.000Z,11.02
2023-05-09T20:21:09.701Z,12.52
2023-05-09T20:23:39.609Z,14.35
2023-05-09T20:26:09.389Z,15.85
2023-05-09T20:28:38.266Z,12.43
2023-05-09T20:31:06.664Z,13.85
2023-05-09T20:33:35.068Z,14.23
2023-05-09T20:36:03.513Z,14.00
2023-05-09T20:38:31.778Z,15.10
2023-05-09T20:41:00.012Z,16.25
2023-05-09T20:43:30.269Z,13.35
2023-05-09T20:45:58.649Z,14.27
2023-05-09T20:48:26.895Z,15.55
2023-05-09T20:50:55.562Z,17.30
2023-05-09T20:53:26.536Z,15.05
2023-05-09T20:55:54.766Z,13.27
2023-05-09T20:58:23.046Z,16.13
2023-05-09T21:00:52.887Z,17.10
2023-05-09T21:03:21.291Z,19.00
2023-05-09T21:05:49.658Z,18.08
2023-05-09T21:08:17.919Z,17.67
2023-05-09T21:10:46.149Z,17.58
2023-05-09T21:13:14.464Z,16.35
2023-05-09T21:15:42.740Z,16.27
2023-05-09T21:18:12.376Z,18.23
2023-05-09T21:20:40.709Z,16.45
2023-05-09T21:23:09.535Z,19.73
2023-05-09T21:25:37.772Z,17.42
2023-05-09T21:28:06.440Z,13.77
2023-05-09T21:30:34.664Z,16.40
2023-05-09T21:33:04.010Z,17.70
2023-05-09T21:35:33.791Z,15.75
2023-05-09T21:38:02.126Z,14.90
2023-05-09T21:40:30.298Z,14.60
2023-05-09T21:42:58.621Z,17.42
2023-05-09T21:45:27.062Z,14.68
2023-05-09T21:47:55.311Z,15.85
2023-05-09T21:50:23.917Z,18.33
2023-05-09T21:52:56.185Z,18.75
2023-05-09T21:55:24.693Z,17.55
2023-05-09T21:57:52.982Z,17.13
2023-05-09T22:00:21.540Z,15.32
2023-05-09T22:02:50.941Z,16.45
2023-05-09T22:05:19.330Z,17.50
2023-05-09T22:07:47.458Z,15.88
2023-05-09T22:10:17.291Z,14.65
2023-05-09T22:12:46.058Z,17.98
2023-05-09T22:15:14.268Z,17.75
2023-05-09T22:17:42.715Z,15.55
2023-05-09T22:20:12.081Z,15.80
2023-05-09T22:22:40.280Z,13.98
2023-05-09T22:25:09.097Z,15.55
2023-05-09T22:27:38.757Z,15.57
2023-05-09T22:30:09.202Z,16.90
2023-05-09T22:32:37.752Z,18.48
2023-05-09T22:35:06.963Z,17.38
2023-05-09T22:37:35.200Z,17.55
2023-05-09T22:40:03.423Z,15.30
2023-05-09T22:42:31.870Z,19.00
2023-05-09T22:45:01.716Z,15.13
2023-05-09T22:47:30.161Z,17.27
2023-05-09T22:49:58.591Z,16.45
2023-05-09T22:52:26.787Z,16.80
2023-05-09T22:54:55.216Z,17.75
2023-05-09T22:57:23.907Z,18.92
2023-05-09T23:00:13.659Z,19.33
2023-05-09T23:02:42.271Z,17.75
2023-05-09T23:05:10.952Z,18.42
2023-05-09T23:07:39.438Z,17.38
2023-05-09T23:10:08.534Z,19.35
2023-05-09T23:12:37.932Z,20.60
2023-05-09T23:15:07.521Z,19.05
2023-05-09T23:17:37.353Z,17.92
2023-05-09T23:20:06.378Z,17.65
2023-05-09T23:22:34.963Z,19.35
2023-05-09T23:25:03.427Z,19.55
2023-05-09T23:27:31.867Z,19.60
2023-05-09T23:30:00.401Z,19.38
2023-05-09T23:32:28.946Z,26.23
2023-05-09T23:34:58.558Z,17.63
2023-05-09T23:37:27.100Z,19.65
2023-05-09T23:39:56.213Z,21.17
2023-05-09T23:42:24.682Z,17.85
2023-05-09T23:44:52.990Z,18.95
2023-05-09T23:47:21.121Z,16.75
2023-05-09T23:49:49.782Z,18.38
2023-05-09T23:52:19.607Z,20.90
2023-05-09T23:54:47.728Z,20.55
2023-05-09T23:57:16.285Z,17.55
2023-05-09T23:59:44.950Z,18.42
